Time;durP1;ratioP1;P1;durP2;ratioP2;P2;SDS_P1;SDS_P2;PMS_P1;PMS_P2;Temp;Humidity;BMP_temperature;BMP_pressure;BME280_temperature;BME280_humidity;BME280_pressure;Samples;Min_cycle;Max_cycle;Signal;HPM_P1;HPM_P2
2024/01/22 00:00:31;;;;;;;22.38;5.30;;;;;;;9.84;100.00;95350.44;5065779;28;20154;-70
2024/01/22 00:02:58;;;;;;;22.77;5.72;;;;;;;9.64;100.00;95354.59;5055162;28;20068;-70
2024/01/22 00:05:25;;;;;;;19.15;5.38;;;;;;;9.49;100.00;95320.69;5063624;28;20052;-71
2024/01/22 00:07:52;;;;;;;18.63;4.35;;;;;;;9.40;100.00;95321.78;5073010;28;20041;-70
2024/01/22 00:10:18;;;;;;;20.40;4.30;;;;;;;9.45;100.00;95324.66;5073105;28;20426;-71
2024/01/22 00:12:45;;;;;;;20.27;4.03;;;;;;;9.64;100.00;95324.06;5072944;28;20074;-70
2024/01/22 00:15:12;;;;;;;20.98;3.78;;;;;;;9.29;100.00;95297.78;5067810;28;20132;-71
2024/01/22 00:17:38;;;;;;;19.90;4.40;;;;;;;9.75;100.00;95306.31;5058728;28;20044;-70
2024/01/22 00:20:07;;;;;;;17.63;4.63;;;;;;;9.70;100.00;95319.91;5059885;28;20659;-70
2024/01/22 00:22:35;;;;;;;16.67;3.60;;;;;;;9.61;100.00;95357.56;5062459;28;20044;-71
2024/01/22 00:25:03;;;;;;;18.40;3.85;;;;;;;9.57;100.00;95353.72;5058408;28;20052;-71
2024/01/22 00:27:30;;;;;;;13.43;3.47;;;;;;;9.59;100.00;95367.41;5064382;28;20474;-71
2024/01/22 00:29:57;;;;;;;14.18;3.33;;;;;;;9.50;100.00;95364.88;5064134;28;20379;-71
2024/01/22 00:32:23;;;;;;;13.13;3.25;;;;;;;9.75;100.00;95325.41;5056355;28;20479;-71
2024/01/22 00:34:50;;;;;;;16.23;3.45;;;;;;;9.59;100.00;95289.88;5055025;28;20049;-70
2024/01/22 00:37:17;;;;;;;15.98;2.92;;;;;;;9.59;100.00;95307.34;5067561;28;20550;-70
2024/01/22 00:39:43;;;;;;;11.20;2.95;;;;;;;9.57;100.00;95338.06;5069997;28;20064;-71
2024/01/22 00:42:11;;;;;;;15.35;3.15;;;;;;;9.54;100.00;95322.75;5057189;28;20764;-71
2024/01/22 00:44:39;;;;;;;11.90;2.80;;;;;;;9.48;100.00;95322.50;5056665;28;20097;-71
2024/01/22 00:47:06;;;;;;;14.75;2.63;;;;;;;9.37;100.00;95328.19;5068932;28;20530;-71
2024/01/22 00:49:32;;;;;;;14.57;2.95;;;;;;;9.60;100.00;95335.88;5056053;28;20080;-71
2024/01/22 00:51:59;;;;;;;14.75;3.78;;;;;;;9.27;100.00;95343.31;5057200;28;20072;-71
2024/01/22 00:54:26;;;;;;;13.00;2.92;;;;;;;9.49;100.00;95357.22;5057837;28;20045;-71
2024/01/22 00:56:53;;;;;;;12.60;2.40;;;;;;;9.79;100.00;95342.34;5067042;28;20170;-71
2024/01/22 00:59:20;;;;;;;11.05;2.47;;;;;;;9.76;100.00;95324.41;5058770;28;20054;-70
2024/01/22 01:01:47;;;;;;;10.70;2.45;;;;;;;9.34;100.00;95323.34;5052445;28;20044;-71
2024/01/22 01:04:13;;;;;;;11.05;2.20;;;;;;;9.42;100.00;95333.69;5052295;28;20084;-71
2024/01/22 01:06:41;;;;;;;9.80;2.25;;;;;;;9.48;100.00;95326.91;5067156;28;20454;-71
2024/01/22 01:09:07;;;;;;;9.30;2.47;;;;;;;9.51;100.00;95310.91;5069818;28;20052;-71
2024/01/22 01:11:34;;;;;;;11.77;2.28;;;;;;;9.36;100.00;95323.97;5069767;28;20143;-70
2024/01/22 01:14:01;;;;;;;8.13;2.10;;;;;;;9.71;100.00;95328.59;5062508;28;20084;-70
2024/01/22 01:16:28;;;;;;;11.63;2.47;;;;;;;9.49;100.00;95328.50;5060260;28;20045;-70
2024/01/22 01:18:55;;;;;;;11.98;2.33;;;;;;;9.56;100.00;95329.44;5058754;28;20052;-71
2024/01/22 01:21:22;;;;;;;12.77;2.72;;;;;;;9.33;100.00;95337.38;5061784;28;20051;-71
2024/01/22 01:23:50;;;;;;;7.07;1.70;;;;;;;9.62;100.00;95330.50;5052867;28;20147;-71
2024/01/22 01:26:16;;;;;;;10.35;2.10;;;;;;;9.25;100.00;95337.47;5064769;28;20411;-71
2024/01/22 01:28:43;;;;;;;10.13;2.08;;;;;;;9.28;100.00;95316.25;5058347;28;20048;-71
2024/01/22 01:31:10;;;;;;;7.25;2.05;;;;;;;9.38;100.00;95305.50;5051672;28;20048;-71
2024/01/22 01:33:37;;;;;;;15.05;2.47;;;;;;;9.22;100.00;95273.41;5050857;28;20045;-70
2024/01/22 01:36:04;;;;;;;11.82;2.00;;;;;;;9.05;100.00;95256.38;5053327;28;20135;-71
2024/01/22 01:38:30;;;;;;;9.73;2.00;;;;;;;9.31;100.00;95269.72;5055904;28;20040;-71
2024/01/22 01:40:57;;;;;;;8.52;2.10;;;;;;;9.24;100.00;95279.28;5054543;28;20053;-71
2024/01/22 01:43:24;;;;;;;8.02;1.60;;;;;;;9.05;100.00;95274.63;5058848;28;20060;-71
2024/01/22 01:45:51;;;;;;;4.95;1.42;;;;;;;9.20;100.00;95311.13;5050076;28;20539;-71
2024/01/22 01:48:17;;;;;;;5.85;1.50;;;;;;;9.26;100.00;95268.63;5056083;28;20041;-71
2024/01/22 01:50:44;;;;;;;5.50;1.30;;;;;;;9.30;100.00;95322.09;5050099;28;20059;-71
2024/01/22 01:53:11;;;;;;;3.85;1.25;;;;;;;9.25;100.00;95334.88;5056072;28;20123;-71
2024/01/22 01:55:38;;;;;;;3.15;1.08;;;;;;;9.23;100.00;95331.63;5054426;28;20053;-71
2024/01/22 01:58:05;;;;;;;6.43;1.23;;;;;;;9.20;100.00;95365.91;5053297;28;20060;-71
2024/01/22 02:00:32;;;;;;;5.38;1.13;;;;;;;9.59;100.00;95404.75;5060432;28;20057;-71
2024/01/22 02:03:00;;;;;;;4.57;1.30;;;;;;;9.58;100.00;95410.16;5050677;28;20053;-71
2024/01/22 02:05:26;;;;;;;3.53;1.15;;;;;;;9.60;100.00;95442.13;5050012;28;20538;-71
2024/01/22 02:07:53;;;;;;;4.78;1.20;;;;;;;9.82;100.00;95454.25;5049515;28;20041;-71
2024/01/22 02:10:20;;;;;;;2.35;0.93;;;;;;;9.89;100.00;95488.28;5062575;28;20052;-70
2024/01/22 02:12:46;;;;;;;2.05;0.90;;;;;;;9.87;100.00;95498.91;5049469;28;20140;-71
2024/01/22 02:15:13;;;;;;;2.38;1.13;;;;;;;9.73;100.00;95518.00;5050221;28;20052;-71
2024/01/22 02:17:40;;;;;;;1.15;0.90;;;;;;;9.86;100.00;95525.19;5057086;28;20037;-71
2024/01/22 02:20:07;;;;;;;2.50;1.00;;;;;;;9.65;100.00;95541.56;5053682;28;20048;-71
2024/01/22 02:22:34;;;;;;;3.03;1.00;;;;;;;9.73;100.00;95556.38;5060981;28;20049;-71
2024/01/22 02:25:01;;;;;;;1.38;0.90;;;;;;;9.68;100.00;95583.84;5056983;28;20044;-71
2024/01/22 02:27:27;;;;;;;2.13;0.93;;;;;;;9.65;100.00;95605.06;5060037;28;20036;-70
2024/01/22 02:29:54;;;;;;;8.30;1.52;;;;;;;9.68;100.00;95627.41;5062043;28;20156;-71
2024/01/22 02:32:21;;;;;;;6.68;2.05;;;;;;;9.80;100.00;95639.03;5049631;28;20088;-71
2024/01/22 02:34:48;;;;;;;3.35;1.10;;;;;;;9.62;100.00;95688.97;5066037;28;20494;-71
2024/01/22 02:37:15;;;;;;;2.58;1.13;;;;;;;9.54;100.00;95698.66;5056504;28;20048;-71
2024/01/22 02:39:42;;;;;;;1.85;1.00;;;;;;;9.77;100.00;95743.03;5061486;28;20479;-71
2024/01/22 02:42:08;;;;;;;2.78;1.10;;;;;;;9.79;100.00;95743.69;5068144;28;20433;-71
2024/01/22 02:44:35;;;;;;;3.97;1.10;;;;;;;9.72;100.00;95761.88;5052635;28;20098;-71
2024/01/22 02:47:03;;;;;;;4.20;1.05;;;;;;;9.88;100.00;95800.13;5056049;28;20128;-71
2024/01/22 02:49:30;;;;;;;2.58;1.00;;;;;;;9.76;100.00;95814.56;5060897;28;20052;-71
2024/01/22 02:51:57;;;;;;;2.55;1.00;;;;;;;9.63;100.00;95796.81;5056061;28;20974;-71
2024/01/22 02:54:23;;;;;;;1.70;1.00;;;;;;;9.75;100.00;95841.66;5063556;28;20052;-71
2024/01/22 02:56:50;;;;;;;2.00;1.02;;;;;;;9.78;100.00;95854.38;5061784;28;20048;-71
2024/01/22 02:59:18;;;;;;;1.40;0.90;;;;;;;9.51;100.00;95893.00;5057916;28;20052;-71
2024/01/22 03:01:45;;;;;;;2.20;0.90;;;;;;;9.50;100.00;95901.81;5055955;28;20045;-71
2024/01/22 03:04:12;;;;;;;1.38;1.00;;;;;;;9.55;100.00;95909.97;5059267;28;20087;-71
2024/01/22 03:06:39;;;;;;;2.95;0.88;;;;;;;9.74;100.00;95920.97;5063620;28;20099;-72
2024/01/22 03:09:06;;;;;;;3.50;1.10;;;;;;;9.46;100.00;95931.84;5056262;28;20048;-71
2024/01/22 03:11:33;;;;;;;2.97;1.27;;;;;;;9.62;100.00;95942.25;5050811;28;20501;-71
2024/01/22 03:14:00;;;;;;;2.75;0.90;;;;;;;9.59;100.00;95967.88;5056523;28;20654;-71
2024/01/22 03:16:27;;;;;;;1.42;0.80;;;;;;;9.61;100.00;95968.50;5057829;28;20059;-71
2024/01/22 03:18:53;;;;;;;2.83;1.67;;;;;;;9.24;100.00;95965.53;5060150;28;20067;-71
2024/01/22 03:21:20;;;;;;;3.80;1.38;;;;;;;9.34;100.00;95982.78;5054690;28;20056;-71
2024/01/22 03:23:47;;;;;;;2.75;1.02;;;;;;;9.41;100.00;96002.81;5069176;28;20967;-71
2024/01/22 03:26:23;;;;;;;1.90;0.88;;;;;;;9.29;100.00;96032.84;5058733;28;20083;-71
2024/01/22 03:28:50;;;;;;;3.17;1.10;;;;;;;9.29;100.00;96038.88;5060145;28;20049;-71
2024/01/22 03:31:25;;;;;;;3.90;1.23;;;;;;;9.21;100.00;96041.53;5051460;28;20095;-71
2024/01/22 03:33:52;;;;;;;4.82;1.40;;;;;;;9.28;100.00;96050.31;5056828;28;20056;-71
2024/01/22 03:36:20;;;;;;;4.93;1.10;;;;;;;9.06;100.00;96062.22;5066040;28;20048;-71
2024/01/22 03:38:47;;;;;;;5.00;1.10;;;;;;;9.03;100.00;96077.38;5061448;28;20456;-71
2024/01/22 03:41:14;;;;;;;2.38;1.00;;;;;;;9.08;100.00;96090.75;5065388;28;20129;-71
2024/01/22 03:43:42;;;;;;;4.10;1.10;;;;;;;8.92;100.00;96073.28;5069512;28;20064;-71
2024/01/22 03:46:10;;;;;;;2.42;1.10;;;;;;;9.15;100.00;96114.41;5069181;28;20045;-71
2024/01/22 03:48:37;;;;;;;2.45;0.90;;;;;;;9.01;100.00;96142.78;5067693;28;20375;-71
2024/01/22 03:51:05;;;;;;;3.35;1.00;;;;;;;9.16;100.00;96158.63;5069092;28;20080;-71
2024/01/22 03:53:32;;;;;;;5.38;1.10;;;;;;;9.05;100.00;96154.53;5069047;28;20091;-71
2024/01/22 03:56:02;;;;;;;5.38;1.10;;;;;;;8.96;100.00;96167.69;5068553;28;20075;-71
2024/01/22 03:58:29;;;;;;;7.75;1.33;;;;;;;9.05;100.00;96178.00;5065533;28;20252;-71
2024/01/22 04:00:56;;;;;;;8.10;1.20;;;;;;;8.95;100.00;96203.41;5060645;28;20060;-71
2024/01/22 04:03:23;;;;;;;5.20;1.30;;;;;;;8.92;100.00;96211.53;5067431;28;20446;-71
2024/01/22 04:05:50;;;;;;;6.75;1.40;;;;;;;9.07;100.00;96243.06;5067341;28;20048;-71
2024/01/22 04:08:17;;;;;;;8.65;1.50;;;;;;;9.11;100.00;96281.72;5066568;28;20045;-71
2024/01/22 04:10:44;;;;;;;6.88;1.50;;;;;;;9.11;100.00;96318.25;5066168;28;20135;-71
2024/01/22 04:13:10;;;;;;;4.85;1.33;;;;;;;8.79;100.00;96311.09;5066599;28;20501;-71
2024/01/22 04:15:37;;;;;;;2.72;1.05;;;;;;;8.93;100.00;96320.94;5067979;28;20052;-71
2024/01/22 04:18:05;;;;;;;2.28;1.10;;;;;;;9.07;100.00;96331.78;5071454;28;20072;-71
2024/01/22 04:20:32;;;;;;;4.35;1.20;;;;;;;8.83;100.00;96348.91;5071174;28;20095;-71
2024/01/22 04:22:59;;;;;;;2.63;1.02;;;;;;;9.13;100.00;96385.94;5072574;28;20048;-71
2024/01/22 04:25:25;;;;;;;6.13;1.10;;;;;;;9.08;100.00;96375.97;5072185;28;20399;-71
2024/01/22 04:27:54;;;;;;;3.38;1.10;;;;;;;8.93;100.00;96411.41;5071204;28;20053;-71
2024/01/22 04:30:21;;;;;;;6.30;1.13;;;;;;;8.95;100.00;96414.69;5070724;28;20130;-71
2024/01/22 04:32:48;;;;;;;4.35;1.20;;;;;;;8.84;100.00;96441.84;5066443;28;20056;-71
2024/01/22 04:35:15;;;;;;;6.78;1.55;;;;;;;8.81;100.00;96423.06;5057422;28;20132;-71
2024/01/22 04:37:42;;;;;;;7.28;1.20;;;;;;;8.76;100.00;96438.34;5061186;28;20047;-71
2024/01/22 04:40:14;;;;;;;4.82;1.30;;;;;;;8.52;100.00;96463.25;5070485;28;20044;-71
2024/01/22 04:42:41;;;;;;;7.63;1.45;;;;;;;8.42;100.00;96447.69;5071075;28;20490;-71
2024/01/22 04:45:08;;;;;;;6.53;1.60;;;;;;;8.46;100.00;96472.47;5070703;28;20079;-70
2024/01/22 04:47:36;;;;;;;5.22;1.42;;;;;;;8.25;100.00;96477.13;5069484;28;20040;-70
2024/01/22 04:50:04;;;;;;;2.35;1.05;;;;;;;8.02;100.00;96498.41;5069269;28;20052;-70
2024/01/22 04:52:31;;;;;;;3.45;1.00;;;;;;;8.11;100.00;96502.72;5070318;28;20435;-71
2024/01/22 04:54:57;;;;;;;2.30;1.10;;;;;;;8.09;100.00;96503.81;5056266;28;20056;-72
2024/01/22 04:57:38;;;;;;;5.35;1.30;;;;;;;8.07;100.00;96540.44;5065385;28;20074;-71
2024/01/22 05:00:05;;;;;;;2.88;1.00;;;;;;;8.07;100.00;96524.81;5070119;28;20066;-71
2024/01/22 05:02:32;;;;;;;2.17;1.00;;;;;;;8.01;100.00;96561.06;5058381;28;20049;-70
2024/01/22 05:05:01;;;;;;;3.30;1.17;;;;;;;8.02;100.00;96554.88;5059104;28;20045;-71
2024/01/22 05:07:28;;;;;;;4.68;1.20;;;;;;;8.06;100.00;96583.09;5063754;28;20057;-71
2024/01/22 05:10:02;;;;;;;3.75;1.00;;;;;;;8.14;100.00;96593.63;5060311;28;20047;-70
2024/01/22 05:12:29;;;;;;;3.67;1.70;;;;;;;8.06;100.00;96621.38;5069582;28;20056;-71
2024/01/22 05:14:55;;;;;;;4.90;1.42;;;;;;;8.03;100.00;96635.47;5058727;28;20114;-70
2024/01/22 05:17:23;;;;;;;7.53;1.95;;;;;;;8.01;100.00;96642.63;5056293;28;20139;-70
2024/01/22 05:19:52;;;;;;;11.70;2.03;;;;;;;7.93;100.00;96660.72;5056278;28;20056;-71
2024/01/22 05:22:19;;;;;;;10.18;2.13;;;;;;;7.90;100.00;96654.03;5064694;28;20048;-70
2024/01/22 05:24:46;;;;;;;12.48;2.22;;;;;;;8.06;100.00;96686.50;5069728;28;20311;-71
2024/01/22 05:27:14;;;;;;;15.45;3.25;;;;;;;8.35;100.00;96710.66;5069801;28;20048;-71
2024/01/22 05:29:41;;;;;;;12.60;2.20;;;;;;;8.28;100.00;96716.59;5055409;28;20237;-71
2024/01/22 05:32:08;;;;;;;8.20;2.33;;;;;;;8.24;100.00;96723.06;5061878;28;20080;-70
2024/01/22 05:34:35;;;;;;;10.38;1.98;;;;;;;8.20;100.00;96734.69;5069956;28;20128;-71
2024/01/22 05:37:01;;;;;;;14.35;2.80;;;;;;;8.05;100.00;96760.38;5064105;28;20052;-71
2024/01/22 05:39:28;;;;;;;17.50;2.65;;;;;;;8.08;100.00;96758.31;5069821;28;20506;-71
2024/01/22 05:41:55;;;;;;;10.18;2.50;;;;;;;8.04;100.00;96771.75;5071115;28;20055;-71
2024/01/22 05:44:21;;;;;;;10.93;3.55;;;;;;;8.09;100.00;96808.63;5070572;28;20056;-72
2024/01/22 05:46:49;;;;;;;12.07;3.55;;;;;;;7.96;100.00;96807.13;5063782;28;20048;-71
2024/01/22 05:49:18;;;;;;;14.57;3.58;;;;;;;7.95;100.00;96815.91;5067707;28;20051;-71
2024/01/22 05:51:45;;;;;;;14.23;3.15;;;;;;;8.11;100.00;96832.75;5059770;28;20049;-70
2024/01/22 05:54:12;;;;;;;12.85;2.83;;;;;;;8.11;100.00;96830.16;5062736;28;20136;-71
2024/01/22 05:56:39;;;;;;;14.20;2.67;;;;;;;7.93;100.00;96858.66;5063629;28;20052;-71
2024/01/22 05:59:06;;;;;;;15.25;2.88;;;;;;;8.08;100.00;96856.50;5065980;28;20048;-71
2024/01/22 06:01:32;;;;;;;9.57;2.30;;;;;;;8.04;100.00;96868.97;5049902;28;20045;-71
2024/01/22 06:04:00;;;;;;;16.58;3.45;;;;;;;7.91;100.00;96891.84;5061285;28;20482;-71
2024/01/22 06:06:26;;;;;;;18.73;3.30;;;;;;;7.86;100.00;96905.28;5064487;28;20049;-70
2024/01/22 06:08:53;;;;;;;11.55;2.78;;;;;;;7.80;100.00;96896.22;5061629;28;20052;-71
2024/01/22 06:11:21;;;;;;;15.18;3.00;;;;;;;7.93;100.00;96898.59;5063682;28;20091;-71
2024/01/22 06:13:47;;;;;;;14.27;2.90;;;;;;;7.73;100.00;96917.72;5057918;28;20398;-71
2024/01/22 06:16:27;;;;;;;12.98;2.58;;;;;;;7.73;100.00;96912.50;5068361;28;20056;-71
2024/01/22 06:18:54;;;;;;;13.82;2.90;;;;;;;7.90;100.00;96924.09;5058466;28;20053;-71
2024/01/22 06:21:21;;;;;;;9.02;2.15;;;;;;;7.77;100.00;96913.88;5058025;28;20120;-71
2024/01/22 06:23:48;;;;;;;9.10;2.50;;;;;;;7.84;100.00;96950.63;5058378;28;20124;-71
2024/01/22 06:26:16;;;;;;;12.50;2.85;;;;;;;7.94;100.00;96941.06;5063916;28;20047;-71
2024/01/22 06:28:43;;;;;;;10.27;2.70;;;;;;;8.00;100.00;96940.53;5058350;28;20044;-71
2024/01/22 06:31:09;;;;;;;12.32;2.33;;;;;;;7.84;100.00;96948.84;5061806;28;20106;-72
2024/01/22 06:33:36;;;;;;;9.13;1.90;;;;;;;7.57;100.00;96959.88;5059042;28;20352;-71
2024/01/22 06:36:04;;;;;;;11.73;1.92;;;;;;;7.54;100.00;96981.81;5052324;28;20482;-72
2024/01/22 06:38:30;;;;;;;8.07;1.90;;;;;;;7.50;100.00;96987.38;5051119;28;20047;-71
2024/01/22 06:40:57;;;;;;;5.03;1.40;;;;;;;7.69;100.00;97005.69;5065988;28;20059;-71
2024/01/22 06:43:24;;;;;;;4.53;1.50;;;;;;;7.56;100.00;96999.88;5060700;28;20075;-71
2024/01/22 06:45:51;;;;;;;5.88;1.63;;;;;;;7.58;100.00;97001.41;5055734;28;20049;-71
2024/01/22 06:48:18;;;;;;;3.60;1.10;;;;;;;7.49;100.00;97027.38;5061412;28;20053;-71
2024/01/22 06:50:45;;;;;;;5.45;1.30;;;;;;;7.46;100.00;97036.28;5054810;28;20144;-71
2024/01/22 06:53:11;;;;;;;2.22;1.00;;;;;;;7.47;100.00;97037.09;5058485;28;20051;-71
2024/01/22 06:55:38;;;;;;;2.28;1.10;;;;;;;7.57;100.00;97048.38;5060328;28;20094;-72
2024/01/22 06:58:05;;;;;;;3.42;1.10;;;;;;;7.47;100.00;97061.38;5048702;28;20402;-72
2024/01/22 07:00:33;;;;;;;1.70;1.00;;;;;;;7.41;100.00;97057.47;5064150;28;20076;-71
2024/01/22 07:02:59;;;;;;;1.75;0.90;;;;;;;7.56;100.00;97068.41;5060055;28;20418;-71
2024/01/22 07:05:26;;;;;;;2.40;1.00;;;;;;;7.43;100.00;97067.75;5060469;28;20048;-71
2024/01/22 07:07:54;;;;;;;1.75;0.90;;;;;;;7.66;100.00;97088.44;5062292;28;20040;-71
2024/01/22 07:10:21;;;;;;;2.65;1.10;;;;;;;7.38;100.00;97091.59;5061734;28;20044;-71
2024/01/22 07:12:48;;;;;;;3.40;1.10;;;;;;;7.43;100.00;97122.41;5049404;28;20048;-71
2024/01/22 07:15:15;;;;;;;2.80;1.20;;;;;;;7.31;100.00;97136.44;5055352;28;20053;-71
2024/01/22 07:17:42;;;;;;;2.10;1.02;;;;;;;7.32;100.00;97145.91;5065720;28;20538;-71
2024/01/22 07:20:16;;;;;;;3.42;1.10;;;;;;;7.24;100.00;97149.09;5064806;28;20040;-71
2024/01/22 07:22:44;;;;;;;3.67;1.20;;;;;;;7.39;100.00;97179.09;5059637;28;20049;-71
2024/01/22 07:25:15;;;;;;;3.90;1.20;;;;;;;7.39;100.00;97170.47;5058354;28;20052;-71
2024/01/22 07:27:44;;;;;;;2.80;1.10;;;;;;;7.48;100.00;97182.72;5052232;28;20057;-71
2024/01/22 07:30:12;;;;;;;3.80;0.93;;;;;;;7.50;100.00;97198.22;5059185;28;20413;-71
2024/01/22 07:32:41;;;;;;;3.35;1.00;;;;;;;7.34;100.00;97193.44;5049282;28;20553;-71
2024/01/22 07:35:13;;;;;;;3.05;1.02;;;;;;;7.31;100.00;97204.94;5051558;28;20049;-71
2024/01/22 07:37:42;;;;;;;3.58;1.05;;;;;;;7.51;100.00;97226.75;5062605;28;20397;-71
2024/01/22 07:40:09;;;;;;;2.45;1.10;;;;;;;7.45;100.00;97216.00;5064992;28;20047;-71
2024/01/22 07:42:38;;;;;;;2.67;1.05;;;;;;;7.40;100.00;97234.56;5065392;28;20045;-71
2024/01/22 07:45:06;;;;;;;2.95;1.08;;;;;;;7.36;100.00;97236.59;5055869;28;20088;-71
2024/01/22 07:47:34;;;;;;;5.68;1.20;;;;;;;7.27;100.00;97252.13;5049996;28;20602;-71
2024/01/22 07:50:06;;;;;;;3.53;1.52;;;;;;;7.45;100.00;97271.47;5055174;28;20053;-71
2024/01/22 07:52:33;;;;;;;2.63;1.00;;;;;;;7.50;100.00;97290.16;5052245;28;20053;-70
2024/01/22 07:55:01;;;;;;;4.63;1.10;;;;;;;7.46;100.00;97293.97;5070660;28;20070;-71
2024/01/22 07:57:29;;;;;;;2.05;1.10;;;;;;;7.31;100.00;97279.56;5056783;28;20053;-71
2024/01/22 07:59:56;;;;;;;3.28;1.20;;;;;;;7.42;100.00;97313.38;5061943;28;20037;-71
2024/01/22 08:02:22;;;;;;;3.08;1.10;;;;;;;7.35;100.00;97314.81;5050735;28;20053;-71
2024/01/22 08:04:50;;;;;;;4.50;1.10;;;;;;;7.18;100.00;97340.38;5060631;28;20154;-71
2024/01/22 08:07:19;;;;;;;3.75;1.45;;;;;;;7.21;100.00;97339.31;5067316;28;20151;-73
2024/01/22 08:09:47;;;;;;;2.45;1.20;;;;;;;7.18;100.00;97349.97;5059021;28;20053;-73
2024/01/22 08:12:14;;;;;;;3.05;1.17;;;;;;;7.16;100.00;97342.25;5067281;28;20044;-73
2024/01/22 08:14:40;;;;;;;3.88;1.10;;;;;;;7.16;100.00;97357.88;5055216;28;20367;-73
2024/01/22 08:17:07;;;;;;;7.88;1.25;;;;;;;7.13;100.00;97378.09;5094185;28;20426;-73
2024/01/22 08:19:34;;;;;;;4.43;1.00;;;;;;;7.20;100.00;97384.47;5063311;28;20147;-73
2024/01/22 08:22:02;;;;;;;2.85;1.05;;;;;;;7.11;100.00;97393.81;5069549;28;20114;-73
2024/01/22 08:24:32;;;;;;;4.03;1.25;;;;;;;7.01;100.00;97408.47;5070984;28;20091;-73
2024/01/22 08:27:00;;;;;;;2.60;1.15;;;;;;;7.19;100.00;97411.47;5068154;28;20132;-73
2024/01/22 08:29:27;;;;;;;4.53;1.80;;;;;;;7.16;100.00;97416.91;5068856;28;20045;-73
2024/01/22 08:31:54;;;;;;;4.10;1.30;;;;;;;7.22;100.00;97437.22;5066063;28;20041;-73
2024/01/22 08:34:22;;;;;;;4.88;1.42;;;;;;;7.14;100.00;97444.81;5050405;28;20057;-73
2024/01/22 08:36:49;;;;;;;4.05;1.20;;;;;;;7.05;100.00;97451.53;5064102;28;20047;-73
2024/01/22 08:39:15;;;;;;;8.48;1.63;;;;;;;7.09;100.00;97439.94;5060719;28;20051;-72
2024/01/22 08:41:42;;;;;;;8.02;1.85;;;;;;;7.28;100.00;97460.19;5071409;28;20048;-72
2024/01/22 08:44:09;;;;;;;6.68;1.42;;;;;;;7.30;100.00;97453.09;5072242;28;20056;-72
2024/01/22 08:46:36;;;;;;;6.80;1.95;;;;;;;7.15;100.00;97460.31;5070826;28;20413;-73
2024/01/22 08:49:04;;;;;;;6.22;1.85;;;;;;;7.18;100.00;97467.88;5072306;28;20051;-72
2024/01/22 08:51:31;;;;;;;9.25;2.00;;;;;;;7.22;100.00;97486.66;5071303;28;20080;-73
2024/01/22 08:54:00;;;;;;;6.95;1.42;;;;;;;7.32;100.00;97498.03;5072301;28;20501;-72
2024/01/22 08:56:27;;;;;;;9.48;1.88;;;;;;;7.28;100.00;97514.84;5070915;28;20048;-72
2024/01/22 08:58:53;;;;;;;8.38;1.98;;;;;;;7.17;100.00;97507.00;5071552;28;20102;-72
2024/01/22 09:01:20;;;;;;;9.23;2.47;;;;;;;7.22;100.00;97523.94;5072468;28;20044;-72
2024/01/22 09:03:47;;;;;;;15.88;2.17;;;;;;;7.74;100.00;97534.78;5070978;28;20075;-72
2024/01/22 09:06:14;;;;;;;11.65;2.65;;;;;;;7.68;100.00;97548.25;5071877;28;20044;-72
2024/01/22 09:08:42;;;;;;;9.77;1.70;;;;;;;7.80;100.00;97565.53;5069807;28;20143;-72
2024/01/22 09:11:09;;;;;;;4.82;1.52;;;;;;;7.55;100.00;97555.34;5071455;28;20155;-72
2024/01/22 09:13:39;;;;;;;5.85;1.50;;;;;;;7.89;100.00;97540.56;5072663;28;20044;-73
2024/01/22 09:16:10;;;;;;;7.47;1.60;;;;;;;7.95;100.00;97560.09;5072262;28;20561;-73
2024/01/22 09:18:37;;;;;;;13.75;2.03;;;;;;;7.69;100.00;97557.72;5071282;28;20047;-72
2024/01/22 09:21:04;;;;;;;6.13;1.50;;;;;;;7.51;100.00;97569.56;5072239;28;20084;-72
2024/01/22 09:23:30;;;;;;;6.68;1.70;;;;;;;7.51;100.00;97570.38;5071147;28;20074;-73
2024/01/22 09:25:57;;;;;;;4.22;1.40;;;;;;;7.50;100.00;97594.72;5072600;28;20466;-73
2024/01/22 09:28:30;;;;;;;4.53;1.40;;;;;;;7.44;100.00;97592.59;5071022;28;20061;-73
2024/01/22 09:30:58;;;;;;;8.07;1.70;;;;;;;7.34;100.00;97597.66;5071967;28;20135;-72
2024/01/22 09:33:25;;;;;;;5.80;1.48;;;;;;;7.39;100.00;97608.56;5070384;28;20128;-72
2024/01/22 09:35:52;;;;;;;7.35;1.70;;;;;;;7.54;100.00;97593.59;5058002;28;20480;-73
2024/01/22 09:38:19;;;;;;;9.20;3.35;;;;;;;7.55;100.00;97597.81;5062505;28;20399;-72
2024/01/22 09:40:49;;;;;;;8.00;2.22;;;;;;;7.26;100.00;97604.38;5068978;28;20266;-72
2024/01/22 09:43:16;;;;;;;10.27;3.25;;;;;;;7.54;100.00;97600.53;5060000;28;20048;-73
2024/01/22 09:45:43;;;;;;;9.80;2.85;;;;;;;7.62;100.00;97613.81;5069952;28;20086;-73
2024/01/22 09:48:10;;;;;;;6.72;1.80;;;;;;;7.65;100.00;97611.00;5071346;28;20040;-72
2024/01/22 09:50:37;;;;;;;6.28;1.75;;;;;;;7.80;100.00;97617.63;5070409;28;20056;-73
2024/01/22 09:53:09;;;;;;;7.40;2.05;;;;;;;7.52;100.00;97625.88;5071662;28;20406;-72
2024/01/22 09:55:40;;;;;;;9.03;1.87;;;;;;;7.52;100.00;97628.47;5072111;28;20048;-72
2024/01/22 09:58:09;;;;;;;9.35;1.90;;;;;;;7.31;100.00;97639.53;5062938;28;20115;-73
2024/01/22 10:00:37;;;;;;;10.20;1.95;;;;;;;7.85;100.00;97645.94;5069598;28;20076;-73
2024/01/22 10:03:06;;;;;;;14.13;2.20;;;;;;;7.68;100.00;97662.00;5067285;28;20524;-72
2024/01/22 10:05:34;;;;;;;6.95;1.73;;;;;;;7.97;100.00;97673.66;5062280;28;20557;-73
2024/01/22 10:08:01;;;;;;;7.78;2.28;;;;;;;7.90;100.00;97675.09;5071052;28;20510;-73
2024/01/22 10:10:28;;;;;;;9.15;1.73;;;;;;;7.77;100.00;97687.34;5070252;28;20140;-73
2024/01/22 10:12:58;;;;;;;7.68;1.80;;;;;;;8.11;100.00;97676.97;5071551;28;20082;-72
2024/01/22 10:15:27;;;;;;;9.65;2.78;;;;;;;7.89;100.00;97676.00;5071443;28;20139;-72
2024/01/22 10:18:07;;;;;;;7.18;1.60;;;;;;;7.67;100.00;97670.78;5070585;28;20094;-72
2024/01/22 10:20:35;;;;;;;8.25;1.92;;;;;;;8.03;100.00;97679.38;5070594;28;20048;-73
2024/01/22 10:23:02;;;;;;;8.32;1.73;;;;;;;7.93;100.00;97672.25;5064091;28;20044;-72
2024/01/22 10:25:32;;;;;;;4.25;1.58;;;;;;;8.08;100.00;97683.28;5056793;28;20059;-73
2024/01/22 10:28:19;;;;;;;6.95;2.10;;;;;;;7.68;100.00;97703.66;5057295;28;20068;-72
2024/01/22 10:31:05;;;;;;;7.00;2.05;;;;;;;7.99;100.00;97695.22;5070504;28;20141;-74
2024/01/22 10:33:32;;;;;;;7.80;1.60;;;;;;;7.88;100.00;97705.63;5070967;28;20044;-73
2024/01/22 10:36:16;;;;;;;8.95;1.80;;;;;;;8.11;100.00;97701.28;5069747;28;20061;-73
2024/01/22 10:38:45;;;;;;;5.20;1.50;;;;;;;8.32;100.00;97711.00;5068787;28;20051;-72
2024/01/22 10:41:19;;;;;;;9.98;1.73;;;;;;;8.16;100.00;97722.63;5070856;28;20055;-73
2024/01/22 10:43:47;;;;;;;10.10;1.90;;;;;;;8.29;100.00;97721.69;5069897;28;20090;-73
2024/01/22 10:46:15;;;;;;;9.48;2.10;;;;;;;8.09;100.00;97738.81;5070814;28;20479;-73
2024/01/22 10:48:44;;;;;;;9.30;2.35;;;;;;;8.10;100.00;97738.72;5064021;28;20419;-72
2024/01/22 10:51:14;;;;;;;14.32;2.53;;;;;;;8.03;100.00;97727.09;5069489;28;20062;-72
2024/01/22 10:53:43;;;;;;;6.88;1.83;;;;;;;8.18;100.00;97736.38;5070041;28;20111;-72
2024/01/22 10:56:17;;;;;;;8.77;1.98;;;;;;;8.35;100.00;97740.28;5069695;28;20064;-72
2024/01/22 10:58:45;;;;;;;8.43;1.77;;;;;;;8.31;100.00;97733.66;5069045;28;20052;-72
2024/01/22 11:01:19;;;;;;;4.97;1.40;;;;;;;8.55;100.00;97727.53;5069542;28;20088;-73
2024/01/22 11:03:49;;;;;;;8.85;2.03;;;;;;;8.43;100.00;97738.88;5069540;28;20083;-72
2024/01/22 11:06:32;;;;;;;12.50;2.03;;;;;;;8.53;100.00;97745.91;5055502;28;20136;-72
2024/01/22 11:09:03;;;;;;;12.70;2.47;;;;;;;8.19;100.00;97737.19;5069259;28;20041;-73
2024/01/22 11:11:35;;;;;;;9.18;1.65;;;;;;;8.20;100.00;97749.28;5055675;28;20507;-72
2024/01/22 11:14:02;;;;;;;5.72;1.45;;;;;;;8.48;100.00;97760.22;5070322;28;20048;-72
2024/01/22 11:16:30;;;;;;;5.90;1.60;;;;;;;8.54;100.00;97760.59;5070530;28;20413;-72
2024/01/22 11:19:02;;;;;;;9.20;1.65;;;;;;;8.49;100.00;97767.94;5069198;28;20058;-73
2024/01/22 11:21:37;;;;;;;;;;;;;;;8.67;100.00;97791.78;5069764;28;20048;-72
2024/01/22 11:24:16;;;;;;;4.68;1.30;;;;;;;8.57;100.00;97801.28;5063113;28;20069;-72
2024/01/22 11:26:45;;;;;;;4.50;1.30;;;;;;;8.55;100.00;97797.94;5068341;28;20063;-72
2024/01/22 11:29:14;;;;;;;2.95;1.10;;;;;;;8.40;100.00;97805.13;5069657;28;20513;-72
2024/01/22 11:31:41;;;;;;;4.30;1.63;;;;;;;8.68;100.00;97809.09;5070364;28;20135;-72
2024/01/22 11:34:11;;;;;;;2.85;1.10;;;;;;;8.59;100.00;97822.84;5068635;28;20044;-72